Time;durP1;ratioP1;P1;durP2;ratioP2;P2;SDS_P1;SDS_P2;PMS_P1;PMS_P2;Temp;Humidity;BMP_temperature;BMP_pressure;BME280_temperature;BME280_humidity;BME280_pressure;Samples;Min_cycle;Max_cycle;Signal;HPM_P1;HPM_P2
2021/12/11 00:00:56;;;;;;;32.03;17.73;;;1.60;99.90;;;;;;5031498;28;20042;-70
2021/12/11 00:03:38;;;;;;;28.55;17.30;;;1.60;99.90;;;;;;5029223;28;20482;-70
2021/12/11 00:06:39;;;;;;;30.33;18.50;;;1.60;99.90;;;;;;5029773;28;20095;-70
2021/12/11 00:09:18;;;;;;;31.20;17.98;;;1.60;99.90;;;;;;4998370;28;20059;-70
2021/12/11 00:11:47;;;;;;;33.45;19.25;;;1.50;99.90;;;;;;5030095;28;20079;-70
2021/12/11 00:14:14;;;;;;;30.83;18.38;;;1.50;99.90;;;;;;5031043;28;20048;-70
2021/12/11 00:16:42;;;;;;;30.38;17.75;;;1.50;99.90;;;;;;5029990;28;20516;-70
2021/12/11 00:19:15;;;;;;;33.63;17.88;;;1.50;99.90;;;;;;5030693;28;20086;-70
2021/12/11 00:21:41;;;;;;;31.52;17.65;;;1.50;99.90;;;;;;5028051;28;20046;-70
2021/12/11 00:24:24;;;;;;;31.33;17.88;;;1.50;99.90;;;;;;5030062;28;20449;-70
2021/12/11 00:26:56;;;;;;;28.83;17.17;;;1.50;99.90;;;;;;5031113;28;20029;-70
2021/12/11 00:29:24;;;;;;;31.45;17.85;;;1.40;99.90;;;;;;5029484;28;20041;-70
2021/12/11 00:31:54;;;;;;;29.00;17.50;;;1.40;99.90;;;;;;5030371;28;20108;-70
2021/12/11 00:34:21;;;;;;;32.13;17.92;;;1.40;99.90;;;;;;5030120;28;20474;-71
2021/12/11 00:37:07;;;;;;;30.65;17.55;;;1.50;99.90;;;;;;5028673;28;20591;-70
2021/12/11 00:39:42;;;;;;;29.95;17.83;;;1.50;99.90;;;;;;5036712;28;20052;-70
2021/12/11 00:42:09;;;;;;;34.03;19.05;;;1.50;99.90;;;;;;5033153;28;20048;-70
2021/12/11 00:44:41;;;;;;;31.80;18.73;;;1.50;99.90;;;;;;5023995;28;20437;-70
2021/12/11 00:47:13;;;;;;;31.83;18.00;;;1.50;99.90;;;;;;5036072;28;20141;-69
2021/12/11 00:50:07;;;;;;;34.13;17.92;;;1.50;99.90;;;;;;5047755;28;20076;-70
2021/12/11 00:52:44;;;;;;;34.60;18.33;;;1.50;99.90;;;;;;5048456;28;20045;-69
2021/12/11 00:55:19;;;;;;;30.98;17.92;;;1.50;99.90;;;;;;5032230;28;20382;-70
2021/12/11 00:57:48;;;;;;;30.13;18.60;;;2.80;99.90;;;;;;5030936;28;20040;-70
2021/12/11 01:00:20;;;;;;;30.90;17.95;;;1.40;99.90;;;;;;5041291;28;20045;-70
2021/12/11 01:02:53;;;;;;;29.38;17.52;;;1.40;99.90;;;;;;5030107;28;20187;-70
2021/12/11 01:05:21;;;;;;;30.13;17.15;;;1.30;99.90;;;;;;5045803;28;20389;-70
2021/12/11 01:07:47;;;;;;;31.13;18.50;;;1.30;99.90;;;;;;5048890;28;20529;-70
2021/12/11 01:10:24;;;;;;;31.48;18.80;;;1.30;99.90;;;;;;5048117;28;20052;-70
2021/12/11 01:12:59;;;;;;;31.77;18.63;;;1.30;99.90;;;;;;5049161;28;20048;-70
2021/12/11 01:15:33;;;;;;;;;;;1.30;99.90;;;;;;5048683;28;20048;-70
2021/12/11 01:21:03;;;;;;;33.40;19.58;;;1.30;99.90;;;;;;5029618;28;20068;-70
2021/12/11 01:23:47;;;;;;;30.17;17.80;;;1.30;99.90;;;;;;5026377;28;20053;-70
2021/12/11 01:26:17;;;;;;;31.77;18.35;;;1.20;99.90;;;;;;5027342;28;20091;-70
2021/12/11 01:28:43;;;;;;;31.65;18.23;;;1.50;99.90;;;;;;5029897;28;20626;-70
2021/12/11 01:31:13;;;;;;;34.63;19.30;;;1.30;99.90;;;;;;5028846;28;20149;-70
2021/12/11 01:33:39;;;;;;;36.85;20.00;;;1.20;99.90;;;;;;5029547;28;20037;-69
2021/12/11 01:36:06;;;;;;;38.15;18.95;;;1.30;99.90;;;;;;5029267;28;20052;-70
2021/12/11 01:38:33;;;;;;;35.13;19.27;;;1.30;99.90;;;;;;5027503;28;20052;-69
2021/12/11 01:41:05;;;;;;;29.25;18.50;;;1.30;99.90;;;;;;5044939;28;20486;-69
2021/12/11 01:43:34;;;;;;;35.83;19.27;;;1.30;99.90;;;;;;5027224;28;20089;-70
2021/12/11 01:46:06;;;;;;;32.83;18.58;;;1.30;99.90;;;;;;5028961;28;20049;-70
2021/12/11 01:48:38;;;;;;;29.63;18.08;;;1.30;99.90;;;;;;5028452;28;20393;-70
2021/12/11 01:51:11;;;;;;;32.40;18.73;;;1.30;99.90;;;;;;5029345;28;20426;-70
2021/12/11 01:53:41;;;;;;;32.05;18.90;;;1.20;99.90;;;;;;5035742;28;20208;-70
2021/12/11 01:56:14;;;;;;;39.13;20.45;;;1.20;99.90;;;;;;5028305;28;20541;-68
2021/12/11 01:58:44;;;;;;;32.55;19.13;;;1.20;99.90;;;;;;5028901;28;20041;-71
2021/12/11 02:01:31;;;;;;;34.20;19.35;;;1.20;99.90;;;;;;5032211;28;20049;-71
2021/12/11 02:03:59;;;;;;;30.90;18.08;;;1.20;99.90;;;;;;5048031;28;20072;-71
2021/12/11 02:06:30;;;;;;;33.25;18.35;;;1.10;99.90;;;;;;5043333;28;20061;-71
2021/12/11 02:08:56;;;;;;;32.55;18.58;;;1.10;99.90;;;;;;5039499;28;20045;-71
2021/12/11 02:11:27;;;;;;;31.73;17.77;;;1.10;99.90;;;;;;5043694;28;20174;-69
2021/12/11 02:14:04;;;;;;;33.33;17.40;;;1.10;99.90;;;;;;5045953;28;20123;-69
2021/12/11 02:16:29;;;;;;;36.45;20.02;;;1.00;99.90;;;;;;5039040;28;20148;-70
2021/12/11 02:19:05;;;;;;;36.70;20.40;;;1.00;99.90;;;;;;5030739;28;20069;-69
2021/12/11 02:21:54;;;;;;;34.92;20.75;;;1.00;99.90;;;;;;5026367;28;20096;-70
2021/12/11 02:24:24;;;;;;;39.33;21.77;;;1.00;99.90;;;;;;5027128;28;20077;-69
2021/12/11 02:26:51;;;;;;;34.40;20.70;;;1.10;99.90;;;;;;5037181;28;20076;-69
2021/12/11 02:29:23;;;;;;;38.10;20.52;;;1.00;99.90;;;;;;5047639;28;20049;-70
2021/12/11 02:31:57;;;;;;;36.20;20.90;;;1.00;99.90;;;;;;5048622;28;20044;-69
2021/12/11 02:34:34;;;;;;;36.13;21.10;;;1.00;99.90;;;;;;5047837;28;20056;-69
2021/12/11 02:37:33;;;;;;;38.85;22.17;;;0.90;99.90;;;;;;5047198;28;20543;-70
2021/12/11 02:40:14;;;;;;;34.20;20.35;;;1.00;99.90;;;;;;5046826;28;20139;-69
2021/12/11 02:43:00;;;;;;;41.47;21.83;;;1.00;99.90;;;;;;5029749;28;20107;-69
2021/12/11 02:45:38;;;;;;;41.30;22.60;;;1.00;99.90;;;;;;5046262;28;20050;-69
2021/12/11 02:48:09;;;;;;;36.70;20.55;;;1.00;99.90;;;;;;5046338;28;20044;-71
2021/12/11 02:50:49;;;;;;;35.58;20.75;;;1.10;99.90;;;;;;5045695;28;20045;-69
2021/12/11 02:53:22;;;;;;;37.88;21.08;;;1.00;99.90;;;;;;5046843;28;20041;-69
2021/12/11 02:55:58;;;;;;;36.60;19.92;;;1.10;99.90;;;;;;5047666;28;20037;-69
2021/12/11 02:58:30;;;;;;;37.95;20.80;;;1.10;99.90;;;;;;5039058;28;20493;-69
2021/12/11 03:01:00;;;;;;;37.05;20.83;;;1.10;99.90;;;;;;5028730;28;20080;-69
2021/12/11 03:03:34;;;;;;;32.10;20.88;;;1.20;99.90;;;;;;5042380;28;20398;-69
2021/12/11 03:06:11;;;;;;;34.78;19.98;;;1.20;99.90;;;;;;5033775;28;20045;-69
2021/12/11 03:08:37;;;;;;;37.25;21.45;;;1.20;99.90;;;;;;5047421;28;20474;-69
2021/12/11 03:11:07;;;;;;;34.72;20.58;;;1.30;99.90;;;;;;5045705;28;20041;-69
2021/12/11 03:13:34;;;;;;;35.47;20.48;;;1.30;99.90;;;;;;5047644;28;20154;-69
2021/12/11 03:16:01;;;;;;;35.40;21.92;;;1.30;99.90;;;;;;5047444;28;20064;-70
2021/12/11 03:18:28;;;;;;;38.17;21.45;;;1.30;99.90;;;;;;5045282;28;20137;-69
2021/12/11 03:20:54;;;;;;;33.72;20.33;;;1.20;99.90;;;;;;5047985;28;20044;-69
2021/12/11 03:23:21;;;;;;;35.25;21.45;;;1.20;99.90;;;;;;5046283;28;20087;-69
2021/12/11 03:25:48;;;;;;;33.95;20.40;;;1.20;99.90;;;;;;5046163;28;20091;-69
2021/12/11 03:28:15;;;;;;;36.30;22.10;;;1.10;99.90;;;;;;5051932;28;20064;-69
2021/12/11 03:30:46;;;;;;;39.63;22.33;;;1.20;99.90;;;;;;5049625;28;20544;-69
2021/12/11 03:33:16;;;;;;;37.40;21.25;;;1.10;99.90;;;;;;5047008;28;20087;-69
2021/12/11 03:35:43;;;;;;;38.55;22.25;;;1.10;99.90;;;;;;5048147;28;20439;-69
2021/12/11 03:38:10;;;;;;;36.70;20.65;;;1.10;99.90;;;;;;5036176;28;20132;-69
2021/12/11 03:40:37;;;;;;;37.30;21.67;;;1.10;99.90;;;;;;5046866;28;20512;-69
2021/12/11 03:43:06;;;;;;;32.95;20.60;;;1.10;99.90;;;;;;5037590;28;20041;-69
2021/12/11 03:45:37;;;;;;;35.08;21.60;;;1.10;99.90;;;;;;5036658;28;20129;-70
2021/12/11 03:48:13;;;;;;;34.38;21.60;;;1.00;99.90;;;;;;5047729;28;20080;-70
2021/12/11 03:50:39;;;;;;;;;;;1.90;99.90;;;;;;5048300;28;20041;-70
2021/12/11 03:53:05;;;;;;;38.70;21.10;;;1.00;99.90;;;;;;5049473;28;20364;-70
2021/12/11 03:55:44;;;;;;;39.70;22.60;;;1.00;99.90;;;;;;5051469;28;20136;-70
2021/12/11 03:58:10;;;;;;;38.10;21.52;;;1.00;99.90;;;;;;5050218;28;20405;-70
2021/12/11 04:00:44;;;;;;;40.30;21.25;;;1.00;99.90;;;;;;5045555;28;20045;-70
2021/12/11 04:03:12;;;;;;;40.95;22.25;;;1.00;99.90;;;;;;5027657;28;20478;-70
2021/12/11 04:05:41;;;;;;;35.65;21.27;;;1.00;99.90;;;;;;5047045;28;20056;-70
2021/12/11 04:08:10;;;;;;;35.67;20.80;;;1.00;99.90;;;;;;5049566;28;20048;-70
2021/12/11 04:10:36;;;;;;;36.45;21.40;;;1.00;99.90;;;;;;5048915;28;20117;-70
2021/12/11 04:13:05;;;;;;;39.80;21.75;;;1.00;99.90;;;;;;5050935;28;20099;-70
2021/12/11 04:15:31;;;;;;;34.00;21.38;;;1.00;99.90;;;;;;5048278;28;20482;-70
2021/12/11 04:17:57;;;;;;;34.35;21.00;;;1.00;99.90;;;;;;5048892;28;20486;-69
2021/12/11 04:20:27;;;;;;;33.83;20.45;;;1.00;99.90;;;;;;5029326;28;20065;-69
2021/12/11 04:22:54;;;;;;;34.20;20.98;;;1.00;99.90;;;;;;5030302;28;20049;-70
2021/12/11 04:25:24;;;;;;;39.72;22.10;;;1.00;99.90;;;;;;5042647;28;20068;-70
2021/12/11 04:27:50;;;;;;;38.90;21.88;;;0.90;99.90;;;;;;5029341;28;20042;-70
2021/12/11 04:30:19;;;;;;;35.65;21.00;;;0.90;99.90;;;;;;5038517;28;20112;-70
2021/12/11 04:32:45;;;;;;;40.65;21.80;;;1.30;99.90;;;;;;5051388;28;20040;-69
2021/12/11 04:35:13;;;;;;;37.65;21.90;;;0.80;99.90;;;;;;5048526;28;20049;-69
2021/12/11 04:37:40;;;;;;;38.10;21.33;;;0.70;99.90;;;;;;5049749;28;20068;-69
2021/12/11 04:40:21;;;;;;;37.40;23.35;;;0.70;99.90;;;;;;5051331;28;20116;-68
2021/12/11 04:43:05;;;;;;;42.22;23.42;;;0.70;99.90;;;;;;5039538;28;20045;-69
2021/12/11 04:45:39;;;;;;;39.10;21.70;;;0.70;99.90;;;;;;5030339;28;20152;-69
2021/12/11 04:48:34;;;;;;;38.25;22.27;;;0.70;99.90;;;;;;5037806;28;20045;-69
2021/12/11 04:51:10;;;;;;;38.28;20.95;;;0.70;99.90;;;;;;5050243;28;20068;-69
2021/12/11 05:01:49;;;;;;;35.92;20.42;;;0.60;99.90;;;;;;5003121;28;20136;-69
2021/12/11 05:07:21;;;;;;;38.20;21.20;;;0.60;99.90;;;;;;5051901;28;20052;-70
2021/12/11 05:09:59;;;;;;;42.78;23.13;;;0.60;99.90;;;;;;5050062;28;20499;-69
2021/12/11 05:12:35;;;;;;;39.83;22.40;;;0.70;99.90;;;;;;5050024;28;20111;-70
2021/12/11 05:15:08;;;;;;;40.30;21.75;;;0.60;99.90;;;;;;5050423;28;20129;-69
2021/12/11 05:17:34;;;;;;;38.60;20.90;;;0.50;99.90;;;;;;5047181;28;20057;-69
2021/12/11 05:20:00;;;;;;;35.67;20.42;;;0.50;99.90;;;;;;5049776;28;20060;-69
2021/12/11 05:22:26;;;;;;;39.75;22.38;;;0.50;99.90;;;;;;5048868;28;20044;-69
2021/12/11 05:24:54;;;;;;;43.95;23.60;;;0.50;99.90;;;;;;5034045;28;20053;-69
2021/12/11 05:27:22;;;;;;;35.83;22.25;;;0.50;99.90;;;;;;5044942;28;20037;-69
2021/12/11 05:29:49;;;;;;;39.65;22.40;;;0.50;99.90;;;;;;5034449;28;20038;-69
2021/12/11 05:32:18;;;;;;;44.67;24.40;;;0.50;99.90;;;;;;5038041;28;20413;-69
2021/12/11 05:34:44;;;;;;;42.15;21.95;;;0.60;99.90;;;;;;5035024;28;20045;-69
2021/12/11 05:37:10;;;;;;;44.38;24.13;;;0.70;99.90;;;;;;5027660;28;20044;-70
2021/12/11 05:39:36;;;;;;;44.10;23.50;;;0.70;99.90;;;;;;5030282;28;20045;-70
2021/12/11 05:42:02;;;;;;;40.28;23.90;;;0.70;99.90;;;;;;5045785;28;20461;-69
2021/12/11 05:44:29;;;;;;;43.78;23.75;;;0.80;99.90;;;;;;5038583;28;20159;-69
2021/12/11 05:46:55;;;;;;;43.00;23.55;;;0.70;99.90;;;;;;5047679;28;20045;-69
2021/12/11 05:49:22;;;;;;;45.13;23.17;;;0.80;99.90;;;;;;5032692;28;20530;-69
2021/12/11 05:51:48;;;;;;;41.45;22.90;;;0.80;99.90;;;;;;5027109;28;20050;-70
2021/12/11 05:54:23;;;;;;;41.40;23.25;;;0.70;99.90;;;;;;5029976;28;20114;-69
2021/12/11 05:56:56;;;;;;;41.25;23.02;;;0.70;99.90;;;;;;5027620;28;20045;-69
2021/12/11 05:59:23;;;;;;;39.30;23.10;;;0.70;99.90;;;;;;5027186;28;20049;-69
2021/12/11 06:02:06;;;;;;;39.75;23.05;;;0.70;99.90;;;;;;5048350;28;20052;-69
2021/12/11 06:04:35;;;;;;;39.22;22.48;;;0.70;99.90;;;;;;5049026;28;20091;-69
2021/12/11 06:07:04;;;;;;;41.80;22.77;;;0.70;99.90;;;;;;5046944;28;20056;-69
2021/12/11 06:09:30;;;;;;;37.95;22.33;;;0.70;99.90;;;;;;5047015;28;20599;-70
2021/12/11 06:12:03;;;;;;;41.58;21.92;;;0.60;99.90;;;;;;5049065;28;20131;-69
2021/12/11 06:14:29;;;;;;;38.58;22.27;;;0.60;99.90;;;;;;5048379;28;20617;-69
2021/12/11 06:17:00;;;;;;;37.50;21.27;;;0.60;99.90;;;;;;5030138;28;20041;-69
2021/12/11 06:19:27;;;;;;;37.75;21.13;;;0.60;99.90;;;;;;5026386;28;20072;-69
2021/12/11 06:21:54;;;;;;;44.53;22.77;;;0.60;99.90;;;;;;5026537;28;20081;-70
2021/12/11 06:24:22;;;;;;;40.50;22.20;;;0.60;99.90;;;;;;5031445;28;20116;-69
2021/12/11 06:26:47;;;;;;;43.35;23.38;;;0.50;99.90;;;;;;5027102;28;20465;-69
2021/12/11 06:29:13;;;;;;;42.25;22.67;;;0.50;99.90;;;;;;5026458;28;20037;-69
2021/12/11 06:31:39;;;;;;;42.90;22.45;;;0.50;99.90;;;;;;5027365;28;20041;-69
2021/12/11 06:34:05;;;;;;;40.90;24.08;;;0.50;99.90;;;;;;5028652;28;20053;-69
2021/12/11 06:36:31;;;;;;;41.65;23.55;;;0.60;99.90;;;;;;5033062;28;20044;-69
2021/12/11 06:39:03;;;;;;;41.40;23.42;;;0.60;99.90;;;;;;5030644;28;20049;-69
2021/12/11 06:41:35;;;;;;;41.88;23.77;;;1.50;99.90;;;;;;5045590;28;20842;-69
2021/12/11 06:44:01;;;;;;;41.10;22.40;;;0.60;99.90;;;;;;5032051;28;20045;-70
2021/12/11 06:46:27;;;;;;;41.38;23.27;;;0.50;99.90;;;;;;5046755;28;20133;-69
2021/12/11 06:48:53;;;;;;;41.90;22.98;;;0.50;99.90;;;;;;5045409;28;20051;-69
2021/12/11 06:51:19;;;;;;;43.67;24.00;;;0.50;99.90;;;;;;5033967;28;20478;-69
2021/12/11 06:53:55;;;;;;;41.55;23.25;;;0.50;99.90;;;;;;5028597;28;20049;-69
2021/12/11 06:56:22;;;;;;;38.40;22.45;;;0.50;99.90;;;;;;5026760;28;20054;-70
2021/12/11 06:58:51;;;;;;;46.03;23.58;;;0.50;99.90;;;;;;5030990;28;20072;-69
2021/12/11 07:01:18;;;;;;;41.28;23.35;;;0.60;99.90;;;;;;5026818;28;20041;-69
2021/12/11 07:03:45;;;;;;;40.70;23.08;;;0.40;99.90;;;;;;5028856;28;20046;-69
2021/12/11 07:06:11;;;;;;;41.15;22.95;;;0.40;99.90;;;;;;5027196;28;20140;-69
2021/12/11 07:08:38;;;;;;;40.10;23.02;;;0.40;99.90;;;;;;5027403;28;20584;-68
2021/12/11 07:11:05;;;;;;;41.22;23.10;;;0.40;99.90;;;;;;5028146;28;20084;-69
2021/12/11 07:13:31;;;;;;;40.35;23.63;;;0.40;99.90;;;;;;5034032;28;20091;-69
2021/12/11 07:15:57;;;;;;;41.38;23.80;;;0.40;99.90;;;;;;5048482;28;20044;-70
2021/12/11 07:18:24;;;;;;;41.58;24.20;;;0.40;99.90;;;;;;5046109;28;20064;-69
2021/12/11 07:20:51;;;;;;;39.22;23.48;;;0.40;99.90;;;;;;5048857;28;20124;-69
2021/12/11 07:23:17;;;;;;;39.75;23.30;;;0.40;99.90;;;;;;5044755;28;20334;-70
2021/12/11 07:25:50;;;;;;;41.22;23.98;;;0.30;99.90;;;;;;5046253;28;20044;-69
2021/12/11 07:28:17;;;;;;;43.83;24.05;;;0.30;99.90;;;;;;5026534;28;20049;-69
2021/12/11 07:30:46;;;;;;;41.97;24.20;;;0.30;99.90;;;;;;5028090;28;20168;-69
2021/12/11 07:33:13;;;;;;;43.42;23.55;;;0.30;99.90;;;;;;5026546;28;20405;-70
2021/12/11 07:35:40;;;;;;;41.10;23.70;;;0.30;99.90;;;;;;5029028;28;20504;-69
2021/12/11 07:38:07;;;;;;;46.38;25.17;;;0.30;99.90;;;;;;5025021;28;20034;-69
2021/12/11 07:40:38;;;;;;;39.10;23.30;;;0.30;99.90;;;;;;5012261;28;20592;-69
2021/12/11 07:43:06;;;;;;;42.33;24.20;;;0.30;99.90;;;;;;5014078;28;20053;-70
2021/12/11 07:45:33;;;;;;;44.88;24.70;;;0.30;99.90;;;;;;5046839;28;20049;-70
2021/12/11 07:47:58;;;;;;;46.42;24.45;;;0.30;99.90;;;;;;5049967;28;20796;-70
2021/12/11 07:50:26;;;;;;;43.97;25.50;;;0.30;99.90;;;;;;5049871;28;20124;-69
2021/12/11 07:52:52;;;;;;;42.35;24.02;;;0.30;99.90;;;;;;5049686;28;20493;-70
2021/12/11 07:55:17;;;;;;;43.65;24.50;;;0.40;99.90;;;;;;5049900;28;20047;-69
2021/12/11 07:57:44;;;;;;;41.67;24.05;;;0.40;99.90;;;;;;5050194;28;20481;-69
2021/12/11 08:00:15;;;;;;;42.45;24.98;;;0.50;99.90;;;;;;5047670;28;20048;-70
2021/12/11 08:02:41;;;;;;;41.60;23.67;;;0.40;99.90;;;;;;5037714;28;20136;-69
2021/12/11 08:05:08;;;;;;;44.17;24.02;;;0.40;99.90;;;;;;5030203;28;20124;-69
2021/12/11 08:07:33;;;;;;;42.92;24.40;;;0.40;99.90;;;;;;5047628;28;20102;-69
2021/12/11 08:09:59;;;;;;;44.05;24.80;;;0.40;99.90;;;;;;5043844;28;20449;-70
2021/12/11 08:12:25;;;;;;;45.60;24.02;;;0.40;99.90;;;;;;5034165;28;20405;-70
2021/12/11 08:14:51;;;;;;;41.05;24.02;;;0.40;99.90;;;;;;5048723;28;20091;-69
2021/12/11 08:17:18;;;;;;;41.05;25.38;;;0.50;99.90;;;;;;5047726;28;20063;-70
2021/12/11 08:19:44;;;;;;;43.50;26.10;;;0.50;99.90;;;;;;5050529;28;20397;-69
2021/12/11 08:22:10;;;;;;;41.45;23.48;;;0.60;99.90;;;;;;5048435;28;20051;-70
2021/12/11 08:24:38;;;;;;;38.03;23.75;;;0.70;99.90;;;;;;5050879;28;20131;-69
2021/12/11 08:27:11;;;;;;;42.13;23.70;;;0.70;99.90;;;;;;5039719;28;20050;-70
2021/12/11 08:29:38;;;;;;;40.75;22.90;;;0.80;99.90;;;;;;5015789;28;20140;-70
2021/12/11 08:32:04;;;;;;;38.20;22.38;;;0.80;99.90;;;;;;5048756;28;20400;-70
2021/12/11 08:34:30;;;;;;;34.92;21.95;;;0.80;99.90;;;;;;5050385;28;20037;-70
2021/12/11 08:36:57;;;;;;;33.92;21.15;;;0.90;99.90;;;;;;5044669;28;20037;-70
2021/12/11 08:39:23;;;;;;;35.78;21.67;;;0.90;99.90;;;;;;5012012;28;20038;-70
2021/12/11 08:41:51;;;;;;;35.70;21.58;;;1.00;99.90;;;;;;5030976;28;20512;-70
2021/12/11 08:44:18;;;;;;;36.42;22.52;;;1.00;99.90;;;;;;5036889;28;20060;-70
2021/12/11 08:46:51;;;;;;;35.65;21.55;;;0.90;99.90;;;;;;5047621;28;20041;-70
2021/12/11 08:49:23;;;;;;;37.17;22.35;;;2.80;99.90;;;;;;5050126;28;20122;-69
2021/12/11 08:51:54;;;;;;;36.63;20.95;;;1.20;99.90;;;;;;5048447;28;20040;-69
2021/12/11 08:54:22;;;;;;;32.63;20.85;;;1.30;99.90;;;;;;5049515;28;20041;-70
2021/12/11 08:56:48;;;;;;;33.17;20.60;;;1.40;99.90;;;;;;5049759;28;20053;-70
2021/12/11 08:59:17;;;;;;;37.20;21.25;;;1.50;99.90;;;;;;5048310;28;20049;-69
2021/12/11 09:01:55;;;;;;;34.53;20.98;;;1.60;99.90;;;;;;5049949;28;20044;-69
2021/12/11 09:04:28;;;;;;;32.33;19.80;;;1.70;99.90;;;;;;5049224;28;20079;-69
2021/12/11 09:07:08;;;;;;;35.30;20.20;;;2.20;99.90;;;;;;5046450;28;20059;-69
2021/12/11 09:09:43;;;;;;;33.72;20.17;;;2.00;99.90;;;;;;5050378;28;20048;-69
2021/12/11 09:12:18;;;;;;;32.58;20.10;;;2.10;99.90;;;;;;5049133;28;20489;-69
2021/12/11 09:14:53;;;;;;;33.70;19.83;;;2.20;99.90;;;;;;5031289;28;20057;-69
2021/12/11 09:17:28;;;;;;;29.97;19.50;;;2.40;99.90;;;;;;5050955;28;20064;-69
2021/12/11 09:20:26;;;;;;;30.23;19.25;;;2.70;99.90;;;;;;5049415;28;20057;-70
2021/12/11 09:23:12;;;;;;;30.13;19.25;;;3.30;99.90;;;;;;5028189;28;20416;-69
2021/12/11 09:25:46;;;;;;;26.70;17.50;;;4.00;99.90;;;;;;5048109;28;20048;-69
2021/12/11 09:28:17;;;;;;;29.90;17.40;;;5.10;99.90;;;;;;5048971;28;20543;-69
2021/12/11 09:30:53;;;;;;;26.42;16.88;;;5.30;99.90;;;;;;5051153;28;20141;-69
2021/12/11 09:33:31;;;;;;;26.15;16.20;;;5.80;99.90;;;;;;5051217;28;20071;-69
2021/12/11 09:36:03;;;;;;;22.88;15.85;;;6.70;99.90;;;;;;5049136;28;20393;-70
2021/12/11 09:38:33;;;;;;;21.63;15.55;;;7.30;99.90;;;;;;5046627;28;20505;-70
2021/12/11 09:40:59;;;;;;;27.27;16.83;;;6.80;99.90;;;;;;5047524;28;20497;-70
2021/12/11 09:43:39;;;;;;;25.63;16.65;;;7.30;99.90;;;;;;5048208;28;20102;-69
2021/12/11 09:46:08;;;;;;;25.40;16.20;;;7.80;99.90;;;;;;5050682;28;20051;-70
2021/12/11 09:48:34;;;;;;;25.17;16.52;;;7.80;99.90;;;;;;5045330;28;20046;-70
2021/12/11 09:51:03;;;;;;;23.75;15.15;;;7.50;99.90;;;;;;5027655;28;20045;-70
2021/12/11 09:53:36;;;;;;;24.55;16.63;;;7.10;99.90;;;;;;5026269;28;20056;-69
2021/12/11 09:56:06;;;;;;;22.50;16.65;;;6.70;99.90;;;;;;5029344;28;20041;-69
2021/12/11 09:58:34;;;;;;;24.67;17.02;;;6.30;99.90;;;;;;5026894;28;20409;-69
2021/12/11 10:01:15;;;;;;;28.17;16.77;;;6.70;99.90;;;;;;5029670;28;20041;-70
2021/12/11 10:03:49;;;;;;;23.15;15.80;;;6.70;99.90;;;;;;5028257;28;20052;-70
2021/12/11 10:09:27;;;;;;;25.95;17.67;;;7.50;99.90;;;;;;5017552;28;20485;-70
2021/12/11 10:12:04;;;;;;;22.75;15.88;;;7.90;99.90;;;;;;5046623;28;20040;-71
2021/12/11 10:14:37;;;;;;;24.30;16.33;;;7.90;99.90;;;;;;5047747;28;20064;-71
2021/12/11 10:17:16;;;;;;;22.80;16.52;;;7.90;99.90;;;;;;5046347;28;20096;-70
2021/12/11 10:19:44;;;;;;;23.83;16.33;;;8.10;99.90;;;;;;5048531;28;20057;-70
2021/12/11 10:22:44;;;;;;;22.95;16.27;;;8.30;99.90;;;;;;5045961;28;20049;-69
2021/12/11 10:25:17;;;;;;;24.80;16.15;;;8.50;99.90;;;;;;5046589;28;20134;-70
2021/12/11 10:27:43;;;;;;;22.70;15.50;;;8.90;99.90;;;;;;5028534;28;20087;-69
2021/12/11 10:30:13;;;;;;;23.27;15.20;;;9.10;99.90;;;;;;5028457;28;20041;-70
2021/12/11 10:32:40;;;;;;;22.42;15.75;;;9.20;99.90;;;;;;5027982;28;20045;-69
2021/12/11 10:35:19;;;;;;;22.38;15.45;;;8.80;99.90;;;;;;5026924;28;20104;-70
2021/12/11 10:37:46;;;;;;;23.55;15.45;;;10.40;99.90;;;;;;5035893;28;20119;-70
2021/12/11 10:40:23;;;;;;;22.25;15.60;;;9.80;99.90;;;;;;5048173;28;20408;-69
2021/12/11 10:43:00;;;;;;;31.88;18.52;;;10.00;99.90;;;;;;5044658;28;20041;-69
2021/12/11 10:45:27;;;;;;;24.50;16.20;;;10.40;99.90;;;;;;5035703;28;20060;-69
2021/12/11 10:47:59;;;;;;;21.50;15.07;;;10.60;99.90;;;;;;5027995;28;20044;-69
2021/12/11 10:50:30;;;;;;;22.30;14.77;;;10.80;99.90;;;;;;5026656;28;20128;-70
2021/12/11 10:52:56;;;;;;;23.25;16.73;;;11.30;99.90;;;;;;5026956;28;20037;-70
2021/12/11 10:55:28;;;;;;;23.98;15.52;;;11.70;99.90;;;;;;5028015;28;20042;-70
2021/12/11 10:57:56;;;;;;;22.92;16.08;;;11.90;99.90;;;;;;5026482;28;20037;-70
2021/12/11 11:00:31;;;;;;;23.95;15.57;;;11.30;99.90;;;;;;5040396;28;20070;-70
2021/12/11 11:02:57;;;;;;;24.17;15.95;;;11.00;99.90;;;;;;5046534;28;20497;-70
2021/12/11 11:05:25;;;;;;;27.35;15.52;;;11.50;99.90;;;;;;5044763;28;20045;-71
2021/12/11 11:07:51;;;;;;;22.83;15.60;;;11.70;99.90;;;;;;5033757;28;20033;-71
2021/12/11 11:10:23;;;;;;;21.58;15.65;;;11.80;99.90;;;;;;5026779;28;20055;-71
2021/12/11 11:12:49;;;;;;;21.00;14.98;;;12.20;99.90;;;;;;5027653;28;20049;-70
2021/12/11 11:15:21;;;;;;;22.38;15.15;;;13.10;99.90;;;;;;5031172;28;20049;-72
2021/12/11 11:17:47;;;;;;;22.70;15.48;;;13.30;99.90;;;;;;5030419;28;20470;-71
2021/12/11 11:20:18;;;;;;;23.52;15.45;;;13.40;99.90;;;;;;5030782;28;20232;-71
2021/12/11 11:22:45;;;;;;;20.52;14.82;;;13.10;99.90;;;;;;5029343;28;20041;-70
2021/12/11 11:25:19;;;;;;;23.77;14.80;;;12.20;99.90;;;;;;5031983;28;20053;-70
2021/12/11 11:27:46;;;;;;;19.90;14.70;;;11.80;99.90;;;;;;5031390;28;20136;-71
2021/12/11 11:30:20;;;;;;;21.73;14.63;;;10.90;99.90;;;;;;5031654;28;20490;-70
2021/12/11 11:32:47;;;;;;;20.40;14.32;;;10.70;99.90;;;;;;5030405;28;20056;-70
2021/12/11 11:35:16;;;;;;;24.33;15.07;;;10.80;99.90;;;;;;5033056;28;20452;-71
2021/12/11 11:37:43;;;;;;;23.92;15.27;;;10.60;99.90;;;;;;5031052;28;20038;-71
2021/12/11 11:40:16;;;;;;;21.52;14.02;;;10.30;99.90;;;;;;5014086;28;20042;-71
2021/12/11 11:42:42;;;;;;;21.52;15.65;;;10.50;99.90;;;;;;5031441;28;20107;-70
2021/12/11 11:45:10;;;;;;;23.88;15.05;;;9.80;99.90;;;;;;5030658;28;20041;-70
2021/12/11 11:47:35;;;;;;;20.42;14.38;;;9.40;99.90;;;;;;5031213;28;20041;-70
2021/12/11 11:50:03;;;;;;;22.70;14.45;;;8.90;99.90;;;;;;5030998;28;20602;-70
2021/12/11 11:52:30;;;;;;;19.95;13.80;;;8.50;99.90;;;;;;5030025;28;20052;-71
2021/12/11 11:55:01;;;;;;;24.75;15.13;;;8.10;99.90;;;;;;5030311;28;20046;-71
2021/12/11 11:57:31;;;;;;;25.25;15.02;;;8.10;99.90;;;;;;5016202;28;20030;-70
2021/12/11 12:00:00;;;;;;;22.50;14.50;;;7.50;99.90;;;;;;5031219;28;20046;-70
2021/12/11 12:02:30;;;;;;;21.30;14.80;;;7.70;99.90;;;;;;5029573;28;20071;-70
2021/12/11 12:04:58;;;;;;;22.23;13.55;;;7.40;99.90;;;;;;5029833;28;20054;-70
2021/12/11 12:07:28;;;;;;;21.25;14.73;;;7.40;99.90;;;;;;5029740;28;20125;-71
2021/12/11 12:10:03;;;;;;;25.02;14.70;;;7.40;99.90;;;;;;5030877;28;20044;-71
2021/12/11 12:12:29;;;;;;;23.33;14.73;;;7.40;99.90;;;;;;5029526;28;20068;-71
2021/12/11 12:14:56;;;;;;;21.00;13.90;;;7.20;99.90;;;;;;5031228;28;20483;-70
2021/12/11 12:17:27;;;;;;;21.98;13.50;;;7.10;99.90;;;;;;5028623;28;20057;-71
2021/12/11 12:19:54;;;;;;;20.98;13.73;;;6.90;99.90;;;;;;5029156;28;20132;-71
2021/12/11 12:22:21;;;;;;;21.20;14.48;;;7.00;99.90;;;;;;5030013;28;20095;-71
2021/12/11 12:24:49;;;;;;;20.80;14.13;;;6.60;99.90;;;;;;5029301;28;20410;-71
2021/12/11 12:27:18;;;;;;;22.85;13.50;;;7.00;99.90;;;;;;5029919;28;20401;-71
2021/12/11 12:29:46;;;;;;;22.38;14.15;;;8.10;99.90;;;;;;5029802;28;20041;-71
2021/12/11 12:32:18;;;;;;;21.88;13.10;;;9.30;99.90;;;;;;5031259;28;20354;-70
2021/12/11 12:34:45;;;;;;;19.90;13.18;;;10.80;99.90;;;;;;5031845;28;20037;-70
2021/12/11 12:37:12;;;;;;;19.55;12.43;;;10.20;99.90;;;;;;5028131;28;20083;-69
2021/12/11 12:39:43;;;;;;;20.08;12.88;;;10.30;99.90;;;;;;5028541;28;20487;-71
2021/12/11 12:42:26;;;;;;;19.20;12.85;;;9.80;99.90;;;;;;5029246;28;20104;-70
2021/12/11 12:45:00;;;;;;;20.88;16.65;;;9.30;99.90;;;;;;5028623;28;20045;-70
2021/12/11 12:47:35;;;;;;;23.10;15.98;;;9.50;99.90;;;;;;5028558;28;20052;-70
2021/12/11 12:50:07;;;;;;;19.80;12.45;;;10.50;99.90;;;;;;5045176;28;20050;-70
2021/12/11 12:52:36;;;;;;;21.33;13.63;;;10.40;99.90;;;;;;5028269;28;20053;-69
2021/12/11 12:55:14;;;;;;;19.27;12.60;;;10.80;99.90;;;;;;5028639;28;20056;-70
2021/12/11 12:57:43;;;;;;;21.08;12.95;;;9.50;99.90;;;;;;5021479;28;20090;-70
2021/12/11 13:00:29;;;;;;;21.25;13.38;;;9.10;99.90;;;;;;5047880;28;20060;-70
2021/12/11 13:03:01;;;;;;;19.95;12.50;;;8.70;99.90;;;;;;5048715;28;20171;-70
2021/12/11 13:05:38;;;;;;;25.60;13.30;;;8.40;99.90;;;;;;5047508;28;20448;-71
2021/12/11 13:08:09;;;;;;;20.67;13.38;;;8.00;99.90;;;;;;5045437;28;20375;-69
2021/12/11 13:10:44;;;;;;;23.73;14.63;;;7.70;99.90;;;;;;5032140;28;20049;-69